sensor_id;sensor_type;location;lat;lon;timestamp;P1;durP1;ratioP1;P2;durP2;ratioP2
70667;SDS011;58242;51.250;-1.118;2023-05-18T00:02:24;3.08;;;2.78;;
70667;SDS011;58242;51.250;-1.118;2023-05-18T00:04:50;3.13;;;2.92;;
70667;SDS011;58242;51.250;-1.118;2023-05-18T00:07:15;3.70;;;3.40;;
70667;SDS011;58242;51.250;-1.118;2023-05-18T00:09:41;3.10;;;2.90;;
70667;SDS011;58242;51.250;-1.118;2023-05-18T00:12:07;3.80;;;2.90;;
70667;SDS011;58242;51.250;-1.118;2023-05-18T00:14:36;4.20;;;3.15;;
70667;SDS011;58242;51.250;-1.118;2023-05-18T00:17:01;3.55;;;3.05;;
70667;SDS011;58242;51.250;-1.118;2023-05-18T00:19:27;4.97;;;2.78;;
70667;SDS011;58242;51.250;-1.118;2023-05-18T00:21:54;3.70;;;3.33;;
70667;SDS011;58242;51.250;-1.118;2023-05-18T00:24:21;3.28;;;3.08;;
70667;SDS011;58242;51.250;-1.118;2023-05-18T00:26:47;3.30;;;3.00;;
70667;SDS011;58242;51.250;-1.118;2023-05-18T00:29:13;3.67;;;3.08;;
70667;SDS011;58242;51.250;-1.118;2023-05-18T00:31:40;5.22;;;3.30;;
70667;SDS011;58242;51.250;-1.118;2023-05-18T00:36:35;3.20;;;3.00;;
70667;SDS011;58242;51.250;-1.118;2023-05-18T00:39:01;3.30;;;3.08;;
70667;SDS011;58242;51.250;-1.118;2023-05-18T00:41:28;3.10;;;2.90;;
70667;SDS011;58242;51.250;-1.118;2023-05-18T00:43:54;3.30;;;3.00;;
70667;SDS011;58242;51.250;-1.118;2023-05-18T00:46:21;2.95;;;2.72;;
70667;SDS011;58242;51.250;-1.118;2023-05-18T00:48:47;3.40;;;3.08;;
70667;SDS011;58242;51.250;-1.118;2023-05-18T00:51:14;3.05;;;2.75;;
70667;SDS011;58242;51.250;-1.118;2023-05-18T00:53:41;3.15;;;2.90;;
70667;SDS011;58242;51.250;-1.118;2023-05-18T00:56:07;3.33;;;3.00;;
70667;SDS011;58242;51.250;-1.118;2023-05-18T00:58:34;5.05;;;3.97;;
70667;SDS011;58242;51.250;-1.118;2023-05-18T01:01:00;4.65;;;3.53;;
70667;SDS011;58242;51.250;-1.118;2023-05-18T01:03:27;4.13;;;3.72;;
70667;SDS011;58242;51.250;-1.118;2023-05-18T01:05:54;3.95;;;3.10;;
70667;SDS011;58242;51.250;-1.118;2023-05-18T01:08:22;3.60;;;3.30;;
70667;SDS011;58242;51.250;-1.118;2023-05-18T01:14:10;4.85;;;3.35;;
70667;SDS011;58242;51.250;-1.118;2023-05-18T01:17:24;3.50;;;3.20;;
70667;SDS011;58242;51.250;-1.118;2023-05-18T01:24:42;4.00;;;3.03;;
70667;SDS011;58242;51.250;-1.118;2023-05-18T01:27:13;3.08;;;2.67;;
70667;SDS011;58242;51.250;-1.118;2023-05-18T01:29:41;2.85;;;2.65;;
70667;SDS011;58242;51.250;-1.118;2023-05-18T01:32:09;3.50;;;3.05;;
70667;SDS011;58242;51.250;-1.118;2023-05-18T01:34:34;3.45;;;3.15;;
70667;SDS011;58242;51.250;-1.118;2023-05-18T01:37:00;3.22;;;2.92;;
70667;SDS011;58242;51.250;-1.118;2023-05-18T01:39:25;2.95;;;2.75;;
70667;SDS011;58242;51.250;-1.118;2023-05-18T01:41:55;3.38;;;3.08;;
70667;SDS011;58242;51.250;-1.118;2023-05-18T01:44:38;3.55;;;3.25;;
70667;SDS011;58242;51.250;-1.118;2023-05-18T01:47:15;3.58;;;3.28;;
70667;SDS011;58242;51.250;-1.118;2023-05-18T01:52:15;5.68;;;3.83;;
70667;SDS011;58242;51.250;-1.118;2023-05-18T01:54:49;3.17;;;2.95;;
70667;SDS011;58242;51.250;-1.118;2023-05-18T01:57:17;3.33;;;3.10;;
70667;SDS011;58242;51.250;-1.118;2023-05-18T01:59:47;3.88;;;3.28;;
70667;SDS011;58242;51.250;-1.118;2023-05-18T02:02:13;5.65;;;3.50;;
70667;SDS011;58242;51.250;-1.118;2023-05-18T02:04:38;3.30;;;3.00;;
70667;SDS011;58242;51.250;-1.118;2023-05-18T02:07:04;2.90;;;2.70;;
70667;SDS011;58242;51.250;-1.118;2023-05-18T02:09:29;3.72;;;3.10;;
70667;SDS011;58242;51.250;-1.118;2023-05-18T02:11:55;2.97;;;2.75;;
70667;SDS011;58242;51.250;-1.118;2023-05-18T02:14:20;3.67;;;2.90;;
70667;SDS011;58242;51.250;-1.118;2023-05-18T02:16:46;4.38;;;3.15;;
70667;SDS011;58242;51.250;-1.118;2023-05-18T02:19:17;3.22;;;3.03;;
70667;SDS011;58242;51.250;-1.118;2023-05-18T02:21:44;3.30;;;3.00;;
70667;SDS011;58242;51.250;-1.118;2023-05-18T02:24:10;3.33;;;3.03;;
70667;SDS011;58242;51.250;-1.118;2023-05-18T02:26:36;3.05;;;2.85;;
70667;SDS011;58242;51.250;-1.118;2023-05-18T02:29:02;4.18;;;3.03;;
70667;SDS011;58242;51.250;-1.118;2023-05-18T02:31:30;3.40;;;3.10;;
70667;SDS011;58242;51.250;-1.118;2023-05-18T02:33:56;3.22;;;2.75;;
70667;SDS011;58242;51.250;-1.118;2023-05-18T02:36:22;3.47;;;3.17;;
70667;SDS011;58242;51.250;-1.118;2023-05-18T02:38:47;4.15;;;3.10;;
70667;SDS011;58242;51.250;-1.118;2023-05-18T02:41:13;2.92;;;2.70;;
70667;SDS011;58242;51.250;-1.118;2023-05-18T02:43:38;3.33;;;3.03;;
70667;SDS011;58242;51.250;-1.118;2023-05-18T02:46:04;4.10;;;3.13;;
70667;SDS011;58242;51.250;-1.118;2023-05-18T02:48:30;3.30;;;3.00;;
70667;SDS011;58242;51.250;-1.118;2023-05-18T02:50:55;3.58;;;3.28;;
70667;SDS011;58242;51.250;-1.118;2023-05-18T02:53:21;4.05;;;3.20;;
70667;SDS011;58242;51.250;-1.118;2023-05-18T02:55:47;3.13;;;2.83;;
70667;SDS011;58242;51.250;-1.118;2023-05-18T02:58:13;3.25;;;2.95;;
70667;SDS011;58242;51.250;-1.118;2023-05-18T03:00:39;4.20;;;3.10;;
70667;SDS011;58242;51.250;-1.118;2023-05-18T03:03:06;4.22;;;2.80;;
70667;SDS011;58242;51.250;-1.118;2023-05-18T03:05:35;5.25;;;3.58;;
70667;SDS011;58242;51.250;-1.118;2023-05-18T03:08:01;3.10;;;2.80;;
70667;SDS011;58242;51.250;-1.118;2023-05-18T03:10:26;3.50;;;3.20;;
70667;SDS011;58242;51.250;-1.118;2023-05-18T03:12:52;3.20;;;2.70;;
70667;SDS011;58242;51.250;-1.118;2023-05-18T03:15:17;3.72;;;3.10;;
70667;SDS011;58242;51.250;-1.118;2023-05-18T03:17:43;3.03;;;2.83;;
70667;SDS011;58242;51.250;-1.118;2023-05-18T03:20:09;4.25;;;3.80;;
70667;SDS011;58242;51.250;-1.118;2023-05-18T03:22:38;4.72;;;3.40;;
70667;SDS011;58242;51.250;-1.118;2023-05-18T03:25:04;3.90;;;3.40;;
70667;SDS011;58242;51.250;-1.118;2023-05-18T03:27:30;3.70;;;3.35;;
70667;SDS011;58242;51.250;-1.118;2023-05-18T03:29:55;4.03;;;3.53;;
70667;SDS011;58242;51.250;-1.118;2023-05-18T03:32:22;4.40;;;3.58;;
70667;SDS011;58242;51.250;-1.118;2023-05-18T03:34:49;3.50;;;3.20;;
70667;SDS011;58242;51.250;-1.118;2023-05-18T03:37:18;4.32;;;3.50;;
70667;SDS011;58242;51.250;-1.118;2023-05-18T03:39:44;3.72;;;3.35;;
70667;SDS011;58242;51.250;-1.118;2023-05-18T03:42:09;3.40;;;3.10;;
70667;SDS011;58242;51.250;-1.118;2023-05-18T03:44:35;3.78;;;3.42;;
70667;SDS011;58242;51.250;-1.118;2023-05-18T03:47:00;5.35;;;3.42;;
70667;SDS011;58242;51.250;-1.118;2023-05-18T03:49:26;5.18;;;3.58;;
70667;SDS011;58242;51.250;-1.118;2023-05-18T03:51:54;3.53;;;3.22;;
70667;SDS011;58242;51.250;-1.118;2023-05-18T03:54:20;3.88;;;3.22;;
70667;SDS011;58242;51.250;-1.118;2023-05-18T03:56:46;4.10;;;2.80;;
70667;SDS011;58242;51.250;-1.118;2023-05-18T03:59:12;3.58;;;3.28;;
70667;SDS011;58242;51.250;-1.118;2023-05-18T04:01:38;3.78;;;3.20;;
70667;SDS011;58242;51.250;-1.118;2023-05-18T04:04:06;3.55;;;3.25;;
70667;SDS011;58242;51.250;-1.118;2023-05-18T04:06:32;3.67;;;3.38;;
70667;SDS011;58242;51.250;-1.118;2023-05-18T04:09:00;3.47;;;3.17;;
70667;SDS011;58242;51.250;-1.118;2023-05-18T04:11:31;3.58;;;3.08;;
70667;SDS011;58242;51.250;-1.118;2023-05-18T04:13:57;3.60;;;3.30;;
70667;SDS011;58242;51.250;-1.118;2023-05-18T04:16:25;2.53;;;2.40;;
70667;SDS011;58242;51.250;-1.118;2023-05-18T04:18:51;2.88;;;2.67;;
70667;SDS011;58242;51.250;-1.118;2023-05-18T04:21:17;2.60;;;2.40;;
70667;SDS011;58242;51.250;-1.118;2023-05-18T04:23:43;3.53;;;3.22;;
70667;SDS011;58242;51.250;-1.118;2023-05-18T04:26:09;3.50;;;3.00;;
70667;SDS011;58242;51.250;-1.118;2023-05-18T04:28:35;3.15;;;2.95;;
70667;SDS011;58242;51.250;-1.118;2023-05-18T04:31:01;3.22;;;2.92;;
70667;SDS011;58242;51.250;-1.118;2023-05-18T04:33:27;3.10;;;2.80;;
70667;SDS011;58242;51.250;-1.118;2023-05-18T04:35:54;3.60;;;3.30;;
70667;SDS011;58242;51.250;-1.118;2023-05-18T04:38:19;3.15;;;2.85;;
70667;SDS011;58242;51.250;-1.118;2023-05-18T04:40:50;3.28;;;2.95;;
70667;SDS011;58242;51.250;-1.118;2023-05-18T04:43:16;3.85;;;2.97;;
70667;SDS011;58242;51.250;-1.118;2023-05-18T04:45:42;3.13;;;2.92;;
70667;SDS011;58242;51.250;-1.118;2023-05-18T04:48:10;3.00;;;2.80;;
70667;SDS011;58242;51.250;-1.118;2023-05-18T04:50:37;3.25;;;2.85;;
70667;SDS011;58242;51.250;-1.118;2023-05-18T04:53:02;3.05;;;2.65;;
70667;SDS011;58242;51.250;-1.118;2023-05-18T04:55:31;3.55;;;3.25;;
70667;SDS011;58242;51.250;-1.118;2023-05-18T04:57:57;4.63;;;3.47;;
70667;SDS011;58242;51.250;-1.118;2023-05-18T05:00:24;4.45;;;3.08;;
70667;SDS011;58242;51.250;-1.118;2023-05-18T05:02:52;3.40;;;3.10;;
70667;SDS011;58242;51.250;-1.118;2023-05-18T05:05:19;6.22;;;2.70;;
70667;SDS011;58242;51.250;-1.118;2023-05-18T05:07:45;2.60;;;2.38;;
70667;SDS011;58242;51.250;-1.118;2023-05-18T05:10:10;4.28;;;3.13;;
70667;SDS011;58242;51.250;-1.118;2023-05-18T05:12:36;4.03;;;2.78;;
70667;SDS011;58242;51.250;-1.118;2023-05-18T05:15:02;3.00;;;2.38;;
70667;SDS011;58242;51.250;-1.118;2023-05-18T05:17:28;3.53;;;2.70;;
70667;SDS011;58242;51.250;-1.118;2023-05-18T05:19:53;2.60;;;2.22;;
70667;SDS011;58242;51.250;-1.118;2023-05-18T05:22:18;2.95;;;2.38;;
70667;SDS011;58242;51.250;-1.118;2023-05-18T05:24:44;4.00;;;2.65;;
70667;SDS011;58242;51.250;-1.118;2023-05-18T05:27:10;2.78;;;2.22;;
70667;SDS011;58242;51.250;-1.118;2023-05-18T05:29:35;4.32;;;3.00;;
70667;SDS011;58242;51.250;-1.118;2023-05-18T05:32:01;4.35;;;2.88;;
70667;SDS011;58242;51.250;-1.118;2023-05-18T05:34:27;3.60;;;2.67;;
70667;SDS011;58242;51.250;-1.118;2023-05-18T05:36:52;3.20;;;2.70;;
70667;SDS011;58242;51.250;-1.118;2023-05-18T05:39:17;2.85;;;2.65;;
70667;SDS011;58242;51.250;-1.118;2023-05-18T05:41:43;3.42;;;2.80;;
70667;SDS011;58242;51.250;-1.118;2023-05-18T05:44:08;3.00;;;2.80;;
70667;SDS011;58242;51.250;-1.118;2023-05-18T05:46:34;4.15;;;3.45;;
70667;SDS011;58242;51.250;-1.118;2023-05-18T05:48:59;4.13;;;3.10;;
70667;SDS011;58242;51.250;-1.118;2023-05-18T05:51:26;3.20;;;2.90;;
70667;SDS011;58242;51.250;-1.118;2023-05-18T05:53:51;3.67;;;3.10;;
70667;SDS011;58242;51.250;-1.118;2023-05-18T05:56:17;3.20;;;2.90;;
70667;SDS011;58242;51.250;-1.118;2023-05-18T05:58:42;2.97;;;2.60;;
70667;SDS011;58242;51.250;-1.118;2023-05-18T06:01:08;3.20;;;2.78;;
70667;SDS011;58242;51.250;-1.118;2023-05-18T06:03:34;3.50;;;2.88;;
70667;SDS011;58242;51.250;-1.118;2023-05-18T06:06:00;3.55;;;3.25;;
70667;SDS011;58242;51.250;-1.118;2023-05-18T06:08:25;3.90;;;3.25;;
70667;SDS011;58242;51.250;-1.118;2023-05-18T06:10:50;4.00;;;3.35;;
70667;SDS011;58242;51.250;-1.118;2023-05-18T06:13:16;4.07;;;2.90;;
70667;SDS011;58242;51.250;-1.118;2023-05-18T06:15:42;4.07;;;3.45;;
70667;SDS011;58242;51.250;-1.118;2023-05-18T06:18:07;4.30;;;3.22;;
70667;SDS011;58242;51.250;-1.118;2023-05-18T06:20:33;3.10;;;2.80;;
70667;SDS011;58242;51.250;-1.118;2023-05-18T06:22:58;4.55;;;3.25;;
70667;SDS011;58242;51.250;-1.118;2023-05-18T06:25:24;3.45;;;3.15;;
70667;SDS011;58242;51.250;-1.118;2023-05-18T06:27:49;3.40;;;3.08;;
70667;SDS011;58242;51.250;-1.118;2023-05-18T06:30:16;3.83;;;3.15;;
70667;SDS011;58242;51.250;-1.118;2023-05-18T06:32:41;2.92;;;2.50;;
70667;SDS011;58242;51.250;-1.118;2023-05-18T06:35:07;3.35;;;2.88;;
70667;SDS011;58242;51.250;-1.118;2023-05-18T06:37:33;5.82;;;3.30;;
70667;SDS011;58242;51.250;-1.118;2023-05-18T06:39:58;5.07;;;3.13;;
70667;SDS011;58242;51.250;-1.118;2023-05-18T06:42:24;4.18;;;2.92;;
70667;SDS011;58242;51.250;-1.118;2023-05-18T06:44:50;3.58;;;3.28;;
70667;SDS011;58242;51.250;-1.118;2023-05-18T06:47:15;3.58;;;3.20;;
70667;SDS011;58242;51.250;-1.118;2023-05-18T06:49:41;3.40;;;3.10;;
70667;SDS011;58242;51.250;-1.118;2023-05-18T06:52:06;3.20;;;2.90;;
70667;SDS011;58242;51.250;-1.118;2023-05-18T06:54:34;4.97;;;3.42;;
70667;SDS011;58242;51.250;-1.118;2023-05-18T06:57:01;3.92;;;3.47;;
70667;SDS011;58242;51.250;-1.118;2023-05-18T06:59:26;3.17;;;2.65;;
70667;SDS011;58242;51.250;-1.118;2023-05-18T07:01:52;4.00;;;3.08;;
70667;SDS011;58242;51.250;-1.118;2023-05-18T07:04:17;4.03;;;3.10;;
70667;SDS011;58242;51.250;-1.118;2023-05-18T07:06:43;4.10;;;3.20;;
70667;SDS011;58242;51.250;-1.118;2023-05-18T07:09:10;3.88;;;3.20;;
70667;SDS011;58242;51.250;-1.118;2023-05-18T07:11:36;3.10;;;2.67;;
70667;SDS011;58242;51.250;-1.118;2023-05-18T07:14:01;2.90;;;2.67;;
70667;SDS011;58242;51.250;-1.118;2023-05-18T07:16:27;3.13;;;2.55;;
70667;SDS011;58242;51.250;-1.118;2023-05-18T07:18:52;3.50;;;3.17;;
70667;SDS011;58242;51.250;-1.118;2023-05-18T07:21:17;2.75;;;2.40;;
70667;SDS011;58242;51.250;-1.118;2023-05-18T07:23:43;3.42;;;3.13;;
70667;SDS011;58242;51.250;-1.118;2023-05-18T07:26:09;3.63;;;3.33;;
70667;SDS011;58242;51.250;-1.118;2023-05-18T07:28:36;4.72;;;3.53;;
70667;SDS011;58242;51.250;-1.118;2023-05-18T07:31:02;3.45;;;2.92;;
70667;SDS011;58242;51.250;-1.118;2023-05-18T07:33:28;4.30;;;3.10;;
70667;SDS011;58242;51.250;-1.118;2023-05-18T07:35:54;4.85;;;4.03;;
70667;SDS011;58242;51.250;-1.118;2023-05-18T07:38:19;2.75;;;2.53;;
70667;SDS011;58242;51.250;-1.118;2023-05-18T07:40:45;4.20;;;3.10;;
70667;SDS011;58242;51.250;-1.118;2023-05-18T07:43:11;3.35;;;2.90;;
70667;SDS011;58242;51.250;-1.118;2023-05-18T07:45:36;3.30;;;2.78;;
70667;SDS011;58242;51.250;-1.118;2023-05-18T07:48:02;8.18;;;3.00;;
70667;SDS011;58242;51.250;-1.118;2023-05-18T07:50:27;4.63;;;3.67;;
70667;SDS011;58242;51.250;-1.118;2023-05-18T07:52:54;3.75;;;2.88;;
70667;SDS011;58242;51.250;-1.118;2023-05-18T07:55:20;3.75;;;3.45;;
70667;SDS011;58242;51.250;-1.118;2023-05-18T07:57:46;2.95;;;2.67;;
70667;SDS011;58242;51.250;-1.118;2023-05-18T08:00:11;3.95;;;2.92;;
70667;SDS011;58242;51.250;-1.118;2023-05-18T08:02:37;4.30;;;3.88;;
70667;SDS011;58242;51.250;-1.118;2023-05-18T08:05:03;3.60;;;3.00;;
70667;SDS011;58242;51.250;-1.118;2023-05-18T08:07:30;3.95;;;3.25;;
70667;SDS011;58242;51.250;-1.118;2023-05-18T08:09:57;6.05;;;3.83;;
70667;SDS011;58242;51.250;-1.118;2023-05-18T08:12:23;3.85;;;3.45;;
70667;SDS011;58242;51.250;-1.118;2023-05-18T08:14:48;5.43;;;3.40;;
70667;SDS011;58242;51.250;-1.118;2023-05-18T08:17:14;4.07;;;3.13;;
70667;SDS011;58242;51.250;-1.118;2023-05-18T08:19:40;3.90;;;2.97;;
70667;SDS011;58242;51.250;-1.118;2023-05-18T08:22:05;2.90;;;2.70;;
70667;SDS011;58242;51.250;-1.118;2023-05-18T08:24:31;4.18;;;3.40;;
70667;SDS011;58242;51.250;-1.118;2023-05-18T08:26:57;3.75;;;2.92;;
70667;SDS011;58242;51.250;-1.118;2023-05-18T08:29:22;3.47;;;3.00;;
70667;SDS011;58242;51.250;-1.118;2023-05-18T08:31:48;3.83;;;3.40;;
70667;SDS011;58242;51.250;-1.118;2023-05-18T08:34:14;3.22;;;2.75;;
70667;SDS011;58242;51.250;-1.118;2023-05-18T08:36:40;4.65;;;3.08;;
70667;SDS011;58242;51.250;-1.118;2023-05-18T08:39:08;3.28;;;2.90;;
70667;SDS011;58242;51.250;-1.118;2023-05-18T08:41:37;3.25;;;2.90;;
70667;SDS011;58242;51.250;-1.118;2023-05-18T08:44:08;4.43;;;3.03;;
70667;SDS011;58242;51.250;-1.118;2023-05-18T08:46:40;4.47;;;3.60;;
70667;SDS011;58242;51.250;-1.118;2023-05-18T08:49:11;3.40;;;3.10;;
70667;SDS011;58242;51.250;-1.118;2023-05-18T08:51:37;3.92;;;3.38;;
70667;SDS011;58242;51.250;-1.118;2023-05-18T08:54:04;3.78;;;3.47;;
70667;SDS011;58242;51.250;-1.118;2023-05-18T08:56:31;3.50;;;3.30;;
70667;SDS011;58242;51.250;-1.118;2023-05-18T08:58:58;3.97;;;3.58;;
70667;SDS011;58242;51.250;-1.118;2023-05-18T09:01:26;3.42;;;3.13;;
70667;SDS011;58242;51.250;-1.118;2023-05-18T09:06:22;4.32;;;3.13;;
70667;SDS011;58242;51.250;-1.118;2023-05-18T09:08:50;2.88;;;2.67;;
70667;SDS011;58242;51.250;-1.118;2023-05-18T09:11:23;3.35;;;2.60;;
70667;SDS011;58242;51.250;-1.118;2023-05-18T09:13:50;3.08;;;2.55;;
70667;SDS011;58242;51.250;-1.118;2023-05-18T09:16:16;3.03;;;2.80;;
70667;SDS011;58242;51.250;-1.118;2023-05-18T09:18:42;3.67;;;3.13;;
70667;SDS011;58242;51.250;-1.118;2023-05-18T09:21:09;3.65;;;3.35;;
70667;SDS011;58242;51.250;-1.118;2023-05-18T09:23:37;4.03;;;2.90;;
70667;SDS011;58242;51.250;-1.118;2023-05-18T09:26:03;2.83;;;2.63;;
70667;SDS011;58242;51.250;-1.118;2023-05-18T09:28:35;3.97;;;3.00;;
70667;SDS011;58242;51.250;-1.118;2023-05-18T09:31:03;3.42;;;2.67;;
70667;SDS011;58242;51.250;-1.118;2023-05-18T09:33:32;5.38;;;2.85;;
70667;SDS011;58242;51.250;-1.118;2023-05-18T09:35:59;2.45;;;2.25;;
70667;SDS011;58242;51.250;-1.118;2023-05-18T09:38:24;3.00;;;2.70;;
70667;SDS011;58242;51.250;-1.118;2023-05-18T09:40:52;3.60;;;2.40;;
70667;SDS011;58242;51.250;-1.118;2023-05-18T09:43:17;4.40;;;3.20;;
70667;SDS011;58242;51.250;-1.118;2023-05-18T09:45:44;2.80;;;2.60;;
70667;SDS011;58242;51.250;-1.118;2023-05-18T09:48:11;2.60;;;2.40;;
70667;SDS011;58242;51.250;-1.118;2023-05-18T09:50:37;3.30;;;2.92;;
70667;SDS011;58242;51.250;-1.118;2023-05-18T09:53:07;2.63;;;2.33;;
70667;SDS011;58242;51.250;-1.118;2023-05-18T09:55:48;2.55;;;2.35;;
70667;SDS011;58242;51.250;-1.118;2023-05-18T09:58:14;3.38;;;2.35;;
70667;SDS011;58242;51.250;-1.118;2023-05-18T10:00:41;2.42;;;2.22;;
70667;SDS011;58242;51.250;-1.118;2023-05-18T10:03:20;2.30;;;2.10;;
70667;SDS011;58242;51.250;-1.118;2023-05-18T10:05:49;2.35;;;2.00;;
70667;SDS011;58242;51.250;-1.118;2023-05-18T10:08:15;2.13;;;2.00;;
70667;SDS011;58242;51.250;-1.118;2023-05-18T10:10:43;2.30;;;2.20;;
70667;SDS011;58242;51.250;-1.118;2023-05-18T10:13:13;1.90;;;1.80;;
70667;SDS011;58242;51.250;-1.118;2023-05-18T10:15:50;2.20;;;2.00;;
70667;SDS011;58242;51.250;-1.118;2023-05-18T10:18:24;2.85;;;2.42;;
70667;SDS011;58242;51.250;-1.118;2023-05-18T10:20:51;3.28;;;2.00;;
70667;SDS011;58242;51.250;-1.118;2023-05-18T10:23:19;2.42;;;2.15;;
70667;SDS011;58242;51.250;-1.118;2023-05-18T10:25:46;1.80;;;1.70;;
70667;SDS011;58242;51.250;-1.118;2023-05-18T10:28:20;2.45;;;2.25;;
70667;SDS011;58242;51.250;-1.118;2023-05-18T10:30:53;3.17;;;2.20;;
70667;SDS011;58242;51.250;-1.118;2023-05-18T10:33:21;2.53;;;2.30;;
70667;SDS011;58242;51.250;-1.118;2023-05-18T10:35:48;2.38;;;2.08;;
70667;SDS011;58242;51.250;-1.118;2023-05-18T10:38:18;2.70;;;2.20;;
70667;SDS011;58242;51.250;-1.118;2023-05-18T10:40:49;2.95;;;2.50;;
70667;SDS011;58242;51.250;-1.118;2023-05-18T10:43:20;3.03;;;2.20;;
70667;SDS011;58242;51.250;-1.118;2023-05-18T10:45:51;2.28;;;2.08;;
70667;SDS011;58242;51.250;-1.118;2023-05-18T10:48:18;2.88;;;2.15;;
70667;SDS011;58242;51.250;-1.118;2023-05-18T10:50:46;2.28;;;2.05;;
70667;SDS011;58242;51.250;-1.118;2023-05-18T10:53:13;5.10;;;2.25;;
70667;SDS011;58242;51.250;-1.118;2023-05-18T10:55:41;3.00;;;2.70;;
70667;SDS011;58242;51.250;-1.118;2023-05-18T10:58:08;2.05;;;1.95;;
70667;SDS011;58242;51.250;-1.118;2023-05-18T11:00:38;2.30;;;2.10;;
70667;SDS011;58242;51.250;-1.118;2023-05-18T11:03:11;2.58;;;2.38;;
70667;SDS011;58242;51.250;-1.118;2023-05-18T11:05:38;3.35;;;2.53;;
70667;SDS011;58242;51.250;-1.118;2023-05-18T11:08:05;2.75;;;2.15;;
70667;SDS011;58242;51.250;-1.118;2023-05-18T11:10:32;2.50;;;2.08;;
70667;SDS011;58242;51.250;-1.118;2023-05-18T11:13:06;2.30;;;2.10;;
70667;SDS011;58242;51.250;-1.118;2023-05-18T11:18:20;3.53;;;2.40;;
70667;SDS011;58242;51.250;-1.118;2023-05-18T11:20:58;2.33;;;2.13;;
70667;SDS011;58242;51.250;-1.118;2023-05-18T11:23:23;2.47;;;2.28;;
70667;SDS011;58242;51.250;-1.118;2023-05-18T11:25:50;2.80;;;2.60;;
70667;SDS011;58242;51.250;-1.118;2023-05-18T11:28:15;2.95;;;2.17;;
70667;SDS011;58242;51.250;-1.118;2023-05-18T11:33:09;3.35;;;2.90;;
70667;SDS011;58242;51.250;-1.118;2023-05-18T11:44:02;2.50;;;2.30;;
70667;SDS011;58242;51.250;-1.118;2023-05-18T11:46:34;2.22;;;2.03;;
70667;SDS011;58242;51.250;-1.118;2023-05-18T11:49:03;2.55;;;2.35;;
70667;SDS011;58242;51.250;-1.118;2023-05-18T11:51:31;2.55;;;2.35;;
70667;SDS011;58242;51.250;-1.118;2023-05-18T11:53:58;2.40;;;2.20;;
70667;SDS011;58242;51.250;-1.118;2023-05-18T11:56:24;2.80;;;2.60;;
70667;SDS011;58242;51.250;-1.118;2023-05-18T11:59:12;1.75;;;1.65;;
70667;SDS011;58242;51.250;-1.118;2023-05-18T12:01:37;2.70;;;2.50;;
70667;SDS011;58242;51.250;-1.118;2023-05-18T12:04:05;4.00;;;2.27;;
70667;SDS011;58242;51.250;-1.118;2023-05-18T12:06:32;2.65;;;2.45;;
70667;SDS011;58242;51.250;-1.118;2023-05-18T12:08:58;2.55;;;2.35;;
70667;SDS011;58242;51.250;-1.118;2023-05-18T12:11:24;2.42;;;2.22;;
70667;SDS011;58242;51.250;-1.118;2023-05-18T12:13:50;2.38;;;2.17;;
70667;SDS011;58242;51.250;-1.118;2023-05-18T12:16:16;2.90;;;1.90;;
70667;SDS011;58242;51.250;-1.118;2023-05-18T12:18:49;2.40;;;2.20;;
70667;SDS011;58242;51.250;-1.118;2023-05-18T12:21:21;2.75;;;2.55;;
70667;SDS011;58242;51.250;-1.118;2023-05-18T12:23:46;2.10;;;2.00;;
70667;SDS011;58242;51.250;-1.118;2023-05-18T12:26:12;2.58;;;2.20;;
70667;SDS011;58242;51.250;-1.118;2023-05-18T12:28:38;2.30;;;2.10;;
70667;SDS011;58242;51.250;-1.118;2023-05-18T12:31:04;3.22;;;2.70;;
70667;SDS011;58242;51.250;-1.118;2023-05-18T12:33:32;3.38;;;2.80;;
70667;SDS011;58242;51.250;-1.118;2023-05-18T12:35:58;3.20;;;2.55;;
70667;SDS011;58242;51.250;-1.118;2023-05-18T12:38:24;3.10;;;2.40;;
70667;SDS011;58242;51.250;-1.118;2023-05-18T12:40:51;2.00;;;1.90;;
70667;SDS011;58242;51.250;-1.118;2023-05-18T12:43:18;2.20;;;2.00;;
70667;SDS011;58242;51.250;-1.118;2023-05-18T12:45:44;2.40;;;1.83;;
70667;SDS011;58242;51.250;-1.118;2023-05-18T12:48:10;1.80;;;1.70;;
70667;SDS011;58242;51.250;-1.118;2023-05-18T12:50:45;2.40;;;2.17;;
70667;SDS011;58242;51.250;-1.118;2023-05-18T12:53:12;2.47;;;2.10;;
70667;SDS011;58242;51.250;-1.118;2023-05-18T12:55:38;2.30;;;2.10;;
70667;SDS011;58242;51.250;-1.118;2023-05-18T12:58:04;1.60;;;1.50;;
70667;SDS011;58242;51.250;-1.118;2023-05-18T13:00:34;2.30;;;2.20;;
70667;SDS011;58242;51.250;-1.118;2023-05-18T13:03:04;1.60;;;1.50;;
70667;SDS011;58242;51.250;-1.118;2023-05-18T13:05:30;2.08;;;1.52;;
70667;SDS011;58242;51.250;-1.118;2023-05-18T13:07:56;1.67;;;1.58;;
70667;SDS011;58242;51.250;-1.118;2023-05-18T13:10:22;1.95;;;1.70;;
70667;SDS011;58242;51.250;-1.118;2023-05-18T13:12:48;1.70;;;1.60;;
70667;SDS011;58242;51.250;-1.118;2023-05-18T13:17:57;2.03;;;1.85;;
70667;SDS011;58242;51.250;-1.118;2023-05-18T13:20:34;2.47;;;2.10;;
70667;SDS011;58242;51.250;-1.118;2023-05-18T13:23:03;2.40;;;2.10;;
70667;SDS011;58242;51.250;-1.118;2023-05-18T13:25:31;2.30;;;1.90;;
70667;SDS011;58242;51.250;-1.118;2023-05-18T13:27:56;2.85;;;2.60;;
70667;SDS011;58242;51.250;-1.118;2023-05-18T13:30:22;2.55;;;2.35;;
70667;SDS011;58242;51.250;-1.118;2023-05-18T13:32:48;2.00;;;1.90;;
70667;SDS011;58242;51.250;-1.118;2023-05-18T13:35:15;2.35;;;2.20;;
70667;SDS011;58242;51.250;-1.118;2023-05-18T13:37:44;1.88;;;1.77;;
70667;SDS011;58242;51.250;-1.118;2023-05-18T13:40:15;1.70;;;1.60;;
70667;SDS011;58242;51.250;-1.118;2023-05-18T13:42:41;2.38;;;1.80;;
70667;SDS011;58242;51.250;-1.118;2023-05-18T13:45:07;2.00;;;1.90;;
70667;SDS011;58242;51.250;-1.118;2023-05-18T13:47:34;1.70;;;1.58;;
70667;SDS011;58242;51.250;-1.118;2023-05-18T13:49:59;2.42;;;2.10;;
70667;SDS011;58242;51.250;-1.118;2023-05-18T13:52:25;2.45;;;2.25;;
70667;SDS011;58242;51.250;-1.118;2023-05-18T13:54:50;2.60;;;2.40;;
70667;SDS011;58242;51.250;-1.118;2023-05-18T13:57:16;3.30;;;2.60;;
70667;SDS011;58242;51.250;-1.118;2023-05-18T13:59:41;2.33;;;2.00;;
70667;SDS011;58242;51.250;-1.118;2023-05-18T14:02:07;2.45;;;2.20;;
70667;SDS011;58242;51.250;-1.118;2023-05-18T14:04:32;2.70;;;2.17;;
70667;SDS011;58242;51.250;-1.118;2023-05-18T14:06:58;2.28;;;2.08;;
70667;SDS011;58242;51.250;-1.118;2023-05-18T14:09:23;3.35;;;2.55;;
70667;SDS011;58242;51.250;-1.118;2023-05-18T14:11:55;1.88;;;1.73;;
70667;SDS011;58242;51.250;-1.118;2023-05-18T14:14:22;2.65;;;2.40;;
70667;SDS011;58242;51.250;-1.118;2023-05-18T14:16:47;2.30;;;2.10;;
70667;SDS011;58242;51.250;-1.118;2023-05-18T14:19:13;3.03;;;2.75;;
70667;SDS011;58242;51.250;-1.118;2023-05-18T14:21:39;2.58;;;2.42;;
70667;SDS011;58242;51.250;-1.118;2023-05-18T14:24:04;2.45;;;2.20;;
70667;SDS011;58242;51.250;-1.118;2023-05-18T14:26:35;2.15;;;1.98;;
70667;SDS011;58242;51.250;-1.118;2023-05-18T14:29:00;2.22;;;2.10;;
70667;SDS011;58242;51.250;-1.118;2023-05-18T14:31:26;2.33;;;2.13;;
70667;SDS011;58242;51.250;-1.118;2023-05-18T14:33:52;2.47;;;2.28;;
70667;SDS011;58242;51.250;-1.118;2023-05-18T14:36:17;2.40;;;2.03;;
70667;SDS011;58242;51.250;-1.118;2023-05-18T14:38:43;3.40;;;2.05;;
70667;SDS011;58242;51.250;-1.118;2023-05-18T14:41:10;2.10;;;2.00;;
70667;SDS011;58242;51.250;-1.118;2023-05-18T14:43:36;3.55;;;2.08;;
70667;SDS011;58242;51.250;-1.118;2023-05-18T14:46:01;3.35;;;2.45;;
70667;SDS011;58242;51.250;-1.118;2023-05-18T14:48:27;2.22;;;2.03;;
70667;SDS011;58242;51.250;-1.118;2023-05-18T14:50:52;2.25;;;2.15;;
70667;SDS011;58242;51.250;-1.118;2023-05-18T14:53:17;2.03;;;1.92;;
70667;SDS011;58242;51.250;-1.118;2023-05-18T14:55:43;2.20;;;2.10;;
70667;SDS011;58242;51.250;-1.118;2023-05-18T14:58:09;2.03;;;1.90;;
70667;SDS011;58242;51.250;-1.118;2023-05-18T15:00:39;2.17;;;1.98;;
70667;SDS011;58242;51.250;-1.118;2023-05-18T15:03:07;2.58;;;2.38;;
70667;SDS011;58242;51.250;-1.118;2023-05-18T15:05:33;3.08;;;2.78;;